createdAt,value
2018-03-01T00:00:30.780Z,41.70
2018-03-01T00:03:01.654Z,41.70
2018-03-01T00:05:34.204Z,41.40
2018-03-01T00:08:05.442Z,41.20
2018-03-01T00:10:36.337Z,41.60
2018-03-01T00:13:07.428Z,41.90
2018-03-01T00:15:38.833Z,41.70
2018-03-01T00:18:10.354Z,41.70
2018-03-01T00:20:41.419Z,41.60
2018-03-01T00:23:12.849Z,41.60
2018-03-01T00:25:43.336Z,41.30
2018-03-01T00:28:15.256Z,41.70
2018-03-01T00:30:46.985Z,41.90
2018-03-01T00:33:18.516Z,41.60
2018-03-01T00:35:50.878Z,42.00
2018-03-01T00:38:22.785Z,41.10
2018-03-01T00:40:54.631Z,41.30
2018-03-01T00:43:26.268Z,41.80
2018-03-01T00:45:58.078Z,41.50
2018-03-01T00:48:30.114Z,41.80
2018-03-01T00:51:01.716Z,41.10
2018-03-01T00:53:33.061Z,40.70
2018-03-01T00:56:04.698Z,40.80
2018-03-01T00:58:36.623Z,41.00
2018-03-01T01:01:07.773Z,41.10
2018-03-01T01:03:39.796Z,41.70
2018-03-01T01:06:11.126Z,40.80
2018-03-01T01:08:42.414Z,41.00
2018-03-01T01:11:14.047Z,41.00
2018-03-01T01:13:45.344Z,41.10
2018-03-01T01:16:17.246Z,41.00
2018-03-01T01:18:48.228Z,41.10
2018-03-01T01:21:19.679Z,41.00
2018-03-01T01:23:51.049Z,41.10
2018-03-01T01:26:23.314Z,41.00
2018-03-01T01:28:56.125Z,41.00
2018-03-01T01:31:28.895Z,41.00
2018-03-01T01:34:00.014Z,41.00
2018-03-01T01:36:31.082Z,40.50
2018-03-01T01:39:04.833Z,40.50
2018-03-01T01:41:35.455Z,40.80
2018-03-01T01:44:05.948Z,40.70
2018-03-01T01:46:36.297Z,40.80
2018-03-01T01:49:06.488Z,40.90
2018-03-01T01:51:37.158Z,41.10
2018-03-01T01:54:07.946Z,40.60
2018-03-01T01:56:38.844Z,40.20
2018-03-01T01:59:10.278Z,40.70
2018-03-01T02:01:40.645Z,40.60
2018-03-01T02:04:11.277Z,40.90
2018-03-01T02:06:41.191Z,41.00
2018-03-01T02:09:11.424Z,40.80
2018-03-01T02:11:41.761Z,40.60
2018-03-01T02:14:11.700Z,40.40
2018-03-01T02:16:42.451Z,40.50
2018-03-01T02:19:14.958Z,40.80
2018-03-01T02:21:45.782Z,41.00
2018-03-01T02:24:16.852Z,41.00
2018-03-01T02:26:47.733Z,41.10
2018-03-01T02:29:18.073Z,41.10
2018-03-01T02:31:49.175Z,41.20
2018-03-01T02:34:20.029Z,40.80
2018-03-01T02:36:50.225Z,40.70
2018-03-01T02:39:20.909Z,41.20
2018-03-01T02:41:51.597Z,40.70
2018-03-01T02:44:22.307Z,40.60
2018-03-01T02:46:53.154Z,40.60
2018-03-01T02:49:23.351Z,40.70
2018-03-01T02:51:56.624Z,40.70
2018-03-01T02:54:27.303Z,41.00
2018-03-01T02:56:58.178Z,41.40
2018-03-01T02:59:28.575Z,41.00
2018-03-01T03:01:59.056Z,38.80
2018-03-01T03:04:29.776Z,41.00
2018-03-01T03:06:59.683Z,41.40
2018-03-01T03:09:30.282Z,41.40
2018-03-01T03:12:00.961Z,41.30
2018-03-01T03:14:31.649Z,41.10
2018-03-01T03:17:02.130Z,41.40
2018-03-01T03:19:32.398Z,41.00
2018-03-01T03:22:03.595Z,41.00
2018-03-01T03:24:33.516Z,40.90
2018-03-01T03:27:04.538Z,41.00
2018-03-01T03:29:34.758Z,41.70
2018-03-01T03:32:05.288Z,41.70
2018-03-01T03:34:35.758Z,41.60
2018-03-01T03:37:09.003Z,41.90
2018-03-01T03:39:38.990Z,41.20
2018-03-01T03:42:09.802Z,41.30
2018-03-01T03:44:40.106Z,41.20
2018-03-01T03:47:10.426Z,41.30
2018-03-01T03:49:40.557Z,41.50
2018-03-01T03:52:12.117Z,41.90
2018-03-01T03:54:42.422Z,41.80
2018-03-01T03:57:12.788Z,41.60
2018-03-01T03:59:42.774Z,41.70
2018-03-01T04:02:13.732Z,42.30
2018-03-01T04:04:43.758Z,41.80
2018-03-01T04:07:13.902Z,41.90
2018-03-01T04:09:44.995Z,41.90
2018-03-01T04:12:15.397Z,42.10
2018-03-01T04:14:46.013Z,42.30
2018-03-01T04:17:16.911Z,42.20
2018-03-01T04:19:47.344Z,42.00
2018-03-01T04:22:17.947Z,42.10
2018-03-01T04:24:48.345Z,42.00
2018-03-01T04:27:18.619Z,42.00
2018-03-01T04:29:49.531Z,42.00
2018-03-01T04:32:22.385Z,43.30
2018-03-01T04:34:52.773Z,42.10
2018-03-01T04:37:23.201Z,42.10
2018-03-01T04:39:53.990Z,42.20
2018-03-01T04:42:25.810Z,42.10
2018-03-01T04:44:56.392Z,42.10
2018-03-01T04:47:26.358Z,42.40
2018-03-01T04:49:56.567Z,42.30
2018-03-01T04:52:26.987Z,42.40
2018-03-01T04:54:57.186Z,42.40
2018-03-01T04:57:27.639Z,42.40
2018-03-01T04:59:58.343Z,42.40
2018-03-01T05:02:28.593Z,42.30
2018-03-01T05:04:59.316Z,42.30
2018-03-01T05:07:29.524Z,42.30
2018-03-01T05:10:00.610Z,42.40
2018-03-01T05:12:31.157Z,42.40
2018-03-01T05:15:01.790Z,42.60
2018-03-01T05:17:32.711Z,42.50
2018-03-01T05:20:04.169Z,42.60
2018-03-01T05:22:36.350Z,42.60
2018-03-01T05:25:07.138Z,42.20
2018-03-01T05:27:38.056Z,42.20
2018-03-01T05:30:08.960Z,42.30
2018-03-01T05:32:39.810Z,42.10
2018-03-01T05:35:10.510Z,42.20
2018-03-01T05:37:41.988Z,42.20
2018-03-01T05:40:12.425Z,42.30
2018-03-01T05:42:43.396Z,42.60
2018-03-01T05:45:15.826Z,42.60
2018-03-01T05:48:12.574Z,42.70
2018-03-01T05:50:45.814Z,42.70
2018-03-01T05:53:17.167Z,42.70
2018-03-01T05:55:49.352Z,42.40
2018-03-01T05:58:26.828Z,42.40
2018-03-01T06:00:58.415Z,42.40
2018-03-01T06:03:30.035Z,42.40
2018-03-01T06:06:01.504Z,42.00
2018-03-01T06:08:33.212Z,42.00
2018-03-01T06:11:04.772Z,41.80
2018-03-01T06:13:36.524Z,41.70
2018-03-01T06:16:08.156Z,41.60
2018-03-01T06:18:39.724Z,41.60
2018-03-01T06:21:11.098Z,41.40
2018-03-01T06:23:42.668Z,41.40
2018-03-01T06:26:24.955Z,41.40
2018-03-01T06:28:56.824Z,41.20
2018-03-01T06:31:28.343Z,41.10
2018-03-01T06:33:59.917Z,41.10
2018-03-01T06:36:35.024Z,41.00
2018-03-01T06:39:06.607Z,41.10
2018-03-01T06:41:37.836Z,41.10
2018-03-01T06:44:09.571Z,41.10
2018-03-01T06:46:40.656Z,43.10
2018-03-01T06:49:11.800Z,40.90
2018-03-01T06:51:43.153Z,40.90
2018-03-01T06:54:14.661Z,41.30
2018-03-01T06:56:46.030Z,42.50
2018-03-01T06:59:17.723Z,40.70
2018-03-01T07:01:49.019Z,40.60
2018-03-01T07:04:20.355Z,40.60
2018-03-01T07:06:51.469Z,40.50
2018-03-01T07:09:22.953Z,40.20
2018-03-01T07:11:54.862Z,40.20
2018-03-01T07:14:26.212Z,40.00
2018-03-01T07:16:57.688Z,39.90
2018-03-01T07:19:28.920Z,39.70
2018-03-01T07:22:00.075Z,39.80
2018-03-01T07:24:31.506Z,39.60
2018-03-01T07:27:02.631Z,39.60
2018-03-01T07:29:33.696Z,39.50
2018-03-01T07:35:38.895Z,39.80
2018-03-01T07:38:10.418Z,39.90
2018-03-01T07:40:46.297Z,39.90
2018-03-01T07:43:21.955Z,39.70
2018-03-01T07:45:53.400Z,39.40
2018-03-01T07:48:25.580Z,39.50
2018-03-01T07:52:13.471Z,39.30
2018-03-01T07:54:44.687Z,39.50
2018-03-01T07:57:15.994Z,38.80
2018-03-01T07:59:47.209Z,38.60
2018-03-01T08:02:18.194Z,38.70
2018-03-01T08:04:49.581Z,38.80
2018-03-01T08:07:26.310Z,39.00
2018-03-01T08:09:57.437Z,38.90
2018-03-01T08:12:28.715Z,39.20
2018-03-01T08:15:00.090Z,39.10
2018-03-01T08:17:31.362Z,39.00
2018-03-01T08:20:03.267Z,39.10
2018-03-01T08:22:36.337Z,38.80
2018-03-01T08:25:07.842Z,39.40
2018-03-01T08:27:40.116Z,38.30
2018-03-01T08:30:11.196Z,37.80
2018-03-01T08:32:43.757Z,37.50
2018-03-01T08:37:52.423Z,37.40
2018-03-01T08:40:23.404Z,37.20
2018-03-01T08:42:54.873Z,36.90
2018-03-01T08:45:27.431Z,38.10
2018-03-01T08:48:19.084Z,37.00
2018-03-01T08:50:57.426Z,36.70
2018-03-01T08:53:29.336Z,36.00
2018-03-01T08:56:00.456Z,35.80
2018-03-01T08:58:34.362Z,36.00
2018-03-01T09:01:05.491Z,35.70
2018-03-01T09:04:07.237Z,35.30
2018-03-01T09:06:39.077Z,34.70
2018-03-01T09:09:09.979Z,34.80
2018-03-01T09:11:41.168Z,34.10
2018-03-01T09:14:12.122Z,33.30
2018-03-01T09:16:43.579Z,33.00
2018-03-01T09:19:14.822Z,32.60
2018-03-01T09:21:45.817Z,32.30
2018-03-01T09:24:16.885Z,31.60
2018-03-01T09:26:49.119Z,30.30
2018-03-01T09:29:20.239Z,30.10
2018-03-01T09:31:51.257Z,29.60
2018-03-01T09:34:23.458Z,28.70
2018-03-01T09:36:54.375Z,28.20
2018-03-01T09:39:25.296Z,28.10
2018-03-01T09:41:56.339Z,28.20
2018-03-01T09:44:27.590Z,28.30
2018-03-01T09:46:58.028Z,29.90
2018-03-01T09:49:32.478Z,27.60
2018-03-01T09:52:03.551Z,27.10
2018-03-01T09:54:33.974Z,27.60
2018-03-01T09:57:04.106Z,26.40
2018-03-01T09:59:34.434Z,25.70
2018-03-01T10:02:11.050Z,25.40
2018-03-01T10:04:41.270Z,25.50
2018-03-01T10:07:11.545Z,25.30
2018-03-01T10:09:41.868Z,25.10
2018-03-01T10:12:13.832Z,24.70
2018-03-01T10:14:44.849Z,23.70
2018-03-01T10:17:16.421Z,24.00
2018-03-01T10:19:47.756Z,24.50
2018-03-01T10:22:20.104Z,24.20
2018-03-01T10:24:51.274Z,23.50
2018-03-01T10:27:22.624Z,23.10
2018-03-01T10:29:53.804Z,22.50
2018-03-01T10:32:26.319Z,22.20
2018-03-01T10:34:57.204Z,22.40
2018-03-01T10:37:29.150Z,22.40
2018-03-01T10:40:00.361Z,22.50
2018-03-01T10:42:31.026Z,22.70
2018-03-01T10:48:04.688Z,22.30
2018-03-01T10:50:35.556Z,22.30
2018-03-01T10:53:06.585Z,22.50
2018-03-01T10:55:37.557Z,21.90
2018-03-01T10:58:08.775Z,22.30
2018-03-01T11:00:44.162Z,22.40
2018-03-01T11:03:15.285Z,22.50
2018-03-01T11:05:46.463Z,22.30
2018-03-01T11:08:17.843Z,22.40
2018-03-01T11:10:50.138Z,22.60
2018-03-01T11:14:24.016Z,21.80
2018-03-01T11:16:54.634Z,21.50
2018-03-01T11:19:36.050Z,21.20
2018-03-01T11:22:07.476Z,21.50
2018-03-01T11:24:38.351Z,21.80
2018-03-01T11:27:11.799Z,22.40
2018-03-01T11:29:42.158Z,22.80
2018-03-01T11:32:14.877Z,21.50
2018-03-01T11:34:46.910Z,21.60
2018-03-01T11:37:18.676Z,21.30
2018-03-01T11:39:49.916Z,19.80
2018-03-01T11:42:21.603Z,21.30
2018-03-01T11:44:53.940Z,21.30
2018-03-01T11:47:25.393Z,20.90
2018-03-01T11:49:56.372Z,20.90
2018-03-01T11:52:27.459Z,20.90
2018-03-01T11:54:58.257Z,21.20
2018-03-01T11:57:30.311Z,20.60
2018-03-01T12:00:02.035Z,20.90
2018-03-01T12:02:38.237Z,20.60
2018-03-01T12:05:10.408Z,20.70
2018-03-01T12:07:41.553Z,20.30
2018-03-01T12:10:13.076Z,20.40
2018-03-01T12:12:44.192Z,20.40
2018-03-01T12:15:15.488Z,20.50
2018-03-01T12:17:46.613Z,20.30
2018-03-01T12:20:20.263Z,20.30
2018-03-01T12:22:51.064Z,20.10
2018-03-01T12:25:23.196Z,20.50
2018-03-01T12:27:54.538Z,20.00
2018-03-01T12:30:26.054Z,20.00
2018-03-01T12:32:58.125Z,20.70
2018-03-01T12:35:29.532Z,19.90
2018-03-01T12:38:02.521Z,19.90
2018-03-01T12:40:33.984Z,19.90
2018-03-01T12:43:04.911Z,19.70
2018-03-01T12:45:35.779Z,19.40
2018-03-01T12:48:07.151Z,19.10
2018-03-01T12:50:38.827Z,19.00
2018-03-01T12:53:09.997Z,19.50
2018-03-01T12:55:40.773Z,19.20
2018-03-01T12:58:11.749Z,18.70
2018-03-01T13:00:43.965Z,19.60
2018-03-01T13:03:20.125Z,18.80
2018-03-01T13:06:01.046Z,18.60
2018-03-01T13:09:34.911Z,19.20
2018-03-01T13:12:06.181Z,20.20
2018-03-01T13:14:38.285Z,20.20
2018-03-01T13:17:10.550Z,20.60
2018-03-01T13:19:42.235Z,22.10
2018-03-01T13:22:13.209Z,20.90
2018-03-01T13:24:44.359Z,20.70
2018-03-01T13:27:25.511Z,20.80
2018-03-01T13:29:56.914Z,20.70
2018-03-01T13:32:27.634Z,22.70
2018-03-01T13:34:58.737Z,21.10
2018-03-01T13:37:29.946Z,21.00
2018-03-01T13:40:01.797Z,21.50
2018-03-01T13:42:33.274Z,22.00
2018-03-01T13:45:06.397Z,21.90
2018-03-01T13:47:39.514Z,22.30
2018-03-01T13:50:10.486Z,22.40
2018-03-01T13:52:41.320Z,22.80
2018-03-01T13:55:12.373Z,22.60
2018-03-01T13:57:48.355Z,22.60
2018-03-01T14:00:19.861Z,22.30
2018-03-01T14:02:50.952Z,22.40
2018-03-01T14:05:21.921Z,22.60
2018-03-01T14:07:53.159Z,22.30
2018-03-01T14:10:25.321Z,22.20
2018-03-01T14:12:57.165Z,22.10
2018-03-01T14:15:33.105Z,22.10
2018-03-01T14:18:04.351Z,21.40
2018-03-01T14:20:36.879Z,22.10
2018-03-01T14:23:07.773Z,21.70
2018-03-01T14:25:39.489Z,22.50
2018-03-01T14:28:10.790Z,22.70
2018-03-01T14:33:28.055Z,24.80
2018-03-01T14:35:59.466Z,23.40
2018-03-01T14:38:31.270Z,23.30
2018-03-01T14:41:02.378Z,23.00
2018-03-01T14:43:33.212Z,22.70
2018-03-01T14:46:08.345Z,23.10
2018-03-01T14:48:41.416Z,23.40
2018-03-01T14:51:12.447Z,23.50
2018-03-01T14:53:43.504Z,23.30
2018-03-01T14:56:18.668Z,23.50
2018-03-01T14:58:49.448Z,23.70
2018-03-01T15:01:20.381Z,23.50
2018-03-01T15:03:51.694Z,23.70
2018-03-01T15:06:23.531Z,23.60
2018-03-01T15:08:55.090Z,23.90
2018-03-01T15:11:26.092Z,23.80
2018-03-01T15:13:57.232Z,23.50
2018-03-01T15:16:28.620Z,23.80
2018-03-01T15:19:03.478Z,23.50
2018-03-01T15:21:35.802Z,23.60
2018-03-01T15:24:06.840Z,23.80
2018-03-01T15:26:37.703Z,23.90
2018-03-01T15:29:08.588Z,23.80
2018-03-01T15:31:39.267Z,23.90
2018-03-01T15:34:09.985Z,24.10
2018-03-01T15:36:40.749Z,24.20
2018-03-01T15:39:11.702Z,24.30
2018-03-01T15:41:42.510Z,24.30
2018-03-01T15:44:13.264Z,24.30
2018-03-01T15:46:44.234Z,24.20
2018-03-01T15:49:14.834Z,24.40
2018-03-01T15:51:46.719Z,24.20
2018-03-01T15:54:17.658Z,24.20
2018-03-01T15:56:48.621Z,24.90
2018-03-01T15:59:19.270Z,25.00
2018-03-01T16:01:50.062Z,25.00
2018-03-01T16:04:20.893Z,24.70
2018-03-01T16:06:51.583Z,24.80
2018-03-01T16:09:24.387Z,26.20
2018-03-01T16:11:59.741Z,26.60
2018-03-01T16:14:31.018Z,25.40
2018-03-01T16:17:02.690Z,25.40
2018-03-01T16:19:35.313Z,26.00
2018-03-01T16:22:06.304Z,25.50
2018-03-01T16:24:37.206Z,25.60
2018-03-01T16:27:08.425Z,26.10
2018-03-01T16:29:39.600Z,26.00
2018-03-01T16:32:10.583Z,25.90
2018-03-01T16:34:41.580Z,26.10
2018-03-01T16:37:12.383Z,26.10
2018-03-01T16:39:44.304Z,25.90
2018-03-01T16:42:19.883Z,26.00
2018-03-01T16:44:50.343Z,25.80
2018-03-01T16:47:21.130Z,25.90
2018-03-01T16:49:52.250Z,26.00
2018-03-01T16:52:26.044Z,26.20
2018-03-01T16:55:00.267Z,25.90
2018-03-01T16:57:31.262Z,25.90
2018-03-01T17:00:04.095Z,25.90
2018-03-01T17:02:44.185Z,26.00
2018-03-01T17:05:15.057Z,25.80
2018-03-01T17:08:00.265Z,25.90
2018-03-01T17:10:34.666Z,26.40
2018-03-01T17:13:06.538Z,26.60
2018-03-01T17:15:38.137Z,26.10
2018-03-01T17:18:09.041Z,26.20
2018-03-01T17:20:41.229Z,26.20
2018-03-01T17:23:12.265Z,25.80
2018-03-01T17:25:44.966Z,25.80
2018-03-01T17:28:32.545Z,26.10
2018-03-01T17:31:04.480Z,26.60
2018-03-01T17:33:35.359Z,26.70
2018-03-01T17:36:06.603Z,26.60
2018-03-01T17:38:37.558Z,27.20
2018-03-01T17:41:08.291Z,27.00
2018-03-01T17:43:39.137Z,26.90
2018-03-01T17:46:10.213Z,26.80
2018-03-01T17:48:41.140Z,26.80
2018-03-01T17:51:12.117Z,26.90
2018-03-01T17:53:44.378Z,27.20
2018-03-01T17:56:15.247Z,27.20
2018-03-01T17:58:47.461Z,27.30
2018-03-01T18:01:18.554Z,27.20
2018-03-01T18:03:51.221Z,27.10
2018-03-01T18:06:22.324Z,26.90
2018-03-01T18:08:54.075Z,27.00
2018-03-01T18:11:24.973Z,27.10
2018-03-01T18:13:55.586Z,27.20
2018-03-01T18:16:26.374Z,27.10
2018-03-01T18:18:57.632Z,27.20
2018-03-01T18:21:28.102Z,27.30
2018-03-01T18:23:58.744Z,27.20
2018-03-01T18:26:35.355Z,28.40
2018-03-01T18:29:05.932Z,27.20
2018-03-01T18:31:37.896Z,27.30
2018-03-01T18:34:09.173Z,27.20
2018-03-01T18:36:40.311Z,27.60
2018-03-01T18:39:11.013Z,27.50
2018-03-01T18:41:42.098Z,27.50
2018-03-01T18:44:12.718Z,27.50
2018-03-01T18:46:56.262Z,27.40
2018-03-01T18:49:27.977Z,27.80
2018-03-01T18:51:58.867Z,27.90
2018-03-01T18:54:30.408Z,27.90
2018-03-01T18:57:01.021Z,27.80
2018-03-01T18:59:31.370Z,27.60
2018-03-01T19:02:02.512Z,27.40
2018-03-01T19:04:34.268Z,27.60
2018-03-01T19:07:05.633Z,28.00
2018-03-01T19:09:36.201Z,27.70
2018-03-01T19:12:06.895Z,27.80
2018-03-01T19:14:37.433Z,28.00
2018-03-01T19:17:10.199Z,28.30
2018-03-01T19:19:40.765Z,28.50
2018-03-01T19:22:12.024Z,28.60
2018-03-01T19:24:42.940Z,28.10
2018-03-01T19:27:13.307Z,28.00
2018-03-01T19:29:44.358Z,27.90
2018-03-01T19:32:15.703Z,28.20
2018-03-01T19:34:47.374Z,28.50
2018-03-01T19:37:18.595Z,28.60
2018-03-01T19:39:49.173Z,29.00
2018-03-01T19:42:20.423Z,29.10
2018-03-01T19:44:53.084Z,29.00
2018-03-01T19:47:24.964Z,29.70
2018-03-01T19:49:56.740Z,29.00
2018-03-01T19:52:29.688Z,28.90
2018-03-01T19:55:08.507Z,28.90
2018-03-01T19:57:43.663Z,30.40
2018-03-01T20:00:16.772Z,29.30
2018-03-01T20:02:47.697Z,29.10
2018-03-01T20:05:18.481Z,29.10
2018-03-01T20:07:49.243Z,29.10
2018-03-01T20:10:19.803Z,29.00
2018-03-01T20:12:51.414Z,29.30
2018-03-01T20:15:22.702Z,29.50
2018-03-01T20:17:53.418Z,29.20
2018-03-01T20:20:24.115Z,29.70
2018-03-01T20:22:54.480Z,29.60
2018-03-01T20:25:25.453Z,30.00
2018-03-01T20:27:56.037Z,30.00
2018-03-01T20:30:27.291Z,30.00
2018-03-01T20:32:57.823Z,29.80
2018-03-01T20:35:28.353Z,29.60
2018-03-01T20:37:59.041Z,29.80
2018-03-01T20:40:29.608Z,30.10
2018-03-01T20:43:00.271Z,29.90
2018-03-01T20:45:30.506Z,30.00
2018-03-01T20:48:01.322Z,30.00
2018-03-01T20:50:32.148Z,30.00
2018-03-01T20:53:04.057Z,30.00
2018-03-01T20:55:34.615Z,30.50
2018-03-01T20:58:05.225Z,30.40
2018-03-01T21:00:35.727Z,29.70
2018-03-01T21:03:14.122Z,28.60
2018-03-01T21:05:44.750Z,30.10
2018-03-01T21:08:15.296Z,30.30
2018-03-01T21:10:46.077Z,30.50
2018-03-01T21:13:17.678Z,30.20
2018-03-01T21:15:48.306Z,30.10
2018-03-01T21:18:18.860Z,30.50
2018-03-01T21:20:51.973Z,31.00
2018-03-01T21:23:22.565Z,31.00
2018-03-01T21:25:53.197Z,30.70
2018-03-01T21:28:23.731Z,31.60
2018-03-01T21:30:54.289Z,30.50
2018-03-01T21:33:24.998Z,30.50
2018-03-01T21:35:55.544Z,30.90
2018-03-01T21:38:26.276Z,31.10
2018-03-01T21:40:56.950Z,31.30
2018-03-01T21:43:29.216Z,31.60
2018-03-01T21:46:00.738Z,31.10
2018-03-01T21:48:31.008Z,31.20
2018-03-01T21:51:01.778Z,32.50
2018-03-01T21:53:32.493Z,31.60
2018-03-01T21:56:03.464Z,31.50
2018-03-01T21:58:33.824Z,31.50
2018-03-01T22:01:04.558Z,31.40
2018-03-01T22:03:35.517Z,31.60
2018-03-01T22:06:06.369Z,31.30
2018-03-01T22:08:37.035Z,31.60
2018-03-01T22:11:07.801Z,31.90
2018-03-01T22:13:38.533Z,31.80
2018-03-01T22:16:09.255Z,31.30
2018-03-01T22:18:39.824Z,31.10
2018-03-01T22:21:10.706Z,31.70
2018-03-01T22:23:41.502Z,33.20
2018-03-01T22:26:12.309Z,31.60
2018-03-01T22:28:43.978Z,31.60
2018-03-01T22:31:14.621Z,31.70
2018-03-01T22:33:45.435Z,31.50
2018-03-01T22:36:16.259Z,31.30
2018-03-01T22:38:47.164Z,31.20
2018-03-01T22:41:18.156Z,31.30
2018-03-01T22:43:49.052Z,31.40
2018-03-01T22:46:19.985Z,31.50
2018-03-01T22:48:50.935Z,31.90
2018-03-01T22:51:21.822Z,31.80
2018-03-01T22:53:52.819Z,31.20
2018-03-01T22:56:23.814Z,31.60
2018-03-01T22:58:54.763Z,31.60
2018-03-01T23:01:27.492Z,31.60
2018-03-01T23:03:58.396Z,31.60
2018-03-01T23:06:29.608Z,31.50
2018-03-01T23:09:00.736Z,31.80
2018-03-01T23:11:31.539Z,31.20
2018-03-01T23:14:02.612Z,32.10
2018-03-01T23:16:33.440Z,31.80
2018-03-01T23:19:04.399Z,31.80
2018-03-01T23:21:35.499Z,32.00
2018-03-01T23:24:06.786Z,32.00
2018-03-01T23:26:38.073Z,32.10
2018-03-01T23:33:47.472Z,32.10
2018-03-01T23:36:19.502Z,32.10
2018-03-01T23:38:50.804Z,32.10
2018-03-01T23:41:21.812Z,32.30
2018-03-01T23:43:52.447Z,32.30
2018-03-01T23:46:23.188Z,32.50
2018-03-01T23:48:54.180Z,32.50
2018-03-01T23:51:24.792Z,32.30
2018-03-01T23:53:55.736Z,32.40
2018-03-01T23:56:26.827Z,32.40
2018-03-01T23:58:57.950Z,32.60
